createdAt,value
2023-04-06T00:03:31.927Z,98462.53
2023-04-06T00:05:58.898Z,98465.44
2023-04-06T00:08:27.706Z,98465.84
2023-04-06T00:10:54.756Z,98462.28
2023-04-06T00:13:21.548Z,98459.97
2023-04-06T00:15:48.516Z,98462.44
2023-04-06T00:18:16.308Z,98456.00
2023-04-06T00:20:43.265Z,98460.03
2023-04-06T00:23:10.584Z,98463.13
2023-04-06T00:25:37.628Z,98454.31
2023-04-06T00:28:04.832Z,98456.97
2023-04-06T00:30:32.125Z,98452.97
2023-04-06T00:32:58.967Z,98450.47
2023-04-06T00:35:26.170Z,98445.56
2023-04-06T00:37:53.290Z,98439.31
2023-04-06T00:40:20.228Z,98443.00
2023-04-06T00:42:47.847Z,98436.56
2023-04-06T00:45:14.968Z,98432.03
2023-04-06T00:47:42.498Z,98432.19
2023-04-06T00:50:09.878Z,98440.09
2023-04-06T00:52:36.795Z,98433.78
2023-04-06T00:55:06.554Z,98430.56
2023-04-06T00:57:38.658Z,98429.28
2023-04-06T01:00:06.534Z,98429.41
2023-04-06T01:02:34.171Z,98426.19
2023-04-06T01:05:01.500Z,98442.16
2023-04-06T01:07:36.703Z,98441.56
2023-04-06T01:10:24.571Z,98436.94
2023-04-06T01:12:52.726Z,98432.69
2023-04-06T01:15:35.429Z,98428.72
2023-04-06T01:18:03.565Z,98433.59
2023-04-06T01:20:31.509Z,98426.38
2023-04-06T01:23:01.686Z,98424.00
2023-04-06T01:25:29.612Z,98432.03
2023-04-06T01:28:07.319Z,98422.84
2023-04-06T01:31:05.064Z,98425.81
2023-04-06T01:33:46.665Z,98417.66
2023-04-06T01:36:17.630Z,98419.91
2023-04-06T01:38:48.568Z,98425.13
2023-04-06T01:41:18.827Z,98427.59
2023-04-06T01:43:50.637Z,98421.34
2023-04-06T01:46:17.608Z,98423.03
2023-04-06T01:48:45.707Z,98416.41
2023-04-06T01:51:21.816Z,98424.13
2023-04-06T01:53:58.575Z,98414.91
2023-04-06T01:56:35.677Z,98419.34
2023-04-06T01:59:12.729Z,98419.63
2023-04-06T02:01:43.062Z,98412.66
2023-04-06T02:04:10.244Z,98422.69
2023-04-06T02:06:37.400Z,98417.25
2023-04-06T02:09:06.902Z,98422.97
2023-04-06T02:11:34.728Z,98414.31
2023-04-06T02:14:02.291Z,98418.97
2023-04-06T02:16:37.045Z,98416.91
2023-04-06T02:19:03.967Z,98422.25
2023-04-06T02:21:31.234Z,98410.44
2023-04-06T02:23:59.220Z,98418.81
2023-04-06T02:26:26.514Z,98420.47
2023-04-06T02:28:53.826Z,98411.09
2023-04-06T02:31:20.810Z,98417.13
2023-04-06T02:33:47.749Z,98416.97
2023-04-06T02:36:16.484Z,98416.81
2023-04-06T02:38:43.688Z,98411.00
2023-04-06T02:41:11.341Z,98421.28
2023-04-06T02:43:38.940Z,98416.38
2023-04-06T02:46:26.611Z,98420.69
2023-04-06T02:48:54.124Z,98398.63
2023-04-06T02:51:22.018Z,98405.53
2023-04-06T02:53:55.087Z,98410.19
2023-04-06T02:56:22.861Z,98414.72
2023-04-06T02:58:51.887Z,98413.53
2023-04-06T03:01:19.741Z,98420.47
2023-04-06T03:03:50.166Z,98422.88
2023-04-06T03:06:23.962Z,98427.16
2023-04-06T03:08:55.748Z,98423.16
2023-04-06T03:11:22.916Z,98427.53
2023-04-06T03:13:51.991Z,98419.22
2023-04-06T03:16:19.081Z,98426.47
2023-04-06T03:18:48.023Z,98428.91
2023-04-06T03:21:18.875Z,98423.47
2023-04-06T03:23:52.355Z,98417.56
2023-04-06T03:26:19.563Z,98420.63
2023-04-06T03:28:46.507Z,98420.34
2023-04-06T03:31:17.321Z,98420.91
2023-04-06T03:34:00.523Z,98414.88
2023-04-06T03:36:33.233Z,98419.28
2023-04-06T03:39:01.768Z,98419.00
2023-04-06T03:41:31.891Z,98417.00
2023-04-06T03:44:08.736Z,98426.81
2023-04-06T03:46:35.801Z,98425.16
2023-04-06T03:49:02.921Z,98427.00
2023-04-06T03:51:30.899Z,98427.69
2023-04-06T03:53:58.076Z,98428.84
2023-04-06T03:56:24.866Z,98438.81
2023-04-06T03:58:54.039Z,98437.28
2023-04-06T04:01:21.859Z,98439.38
2023-04-06T04:03:51.464Z,98427.09
2023-04-06T04:06:18.585Z,98446.63
2023-04-06T04:08:46.655Z,98445.78
2023-04-06T04:11:13.350Z,98439.91
2023-04-06T04:13:40.608Z,98437.69
2023-04-06T04:16:10.962Z,98447.28
2023-04-06T04:18:37.968Z,98441.78
2023-04-06T04:21:06.856Z,98439.50
2023-04-06T04:23:37.569Z,98440.81
2023-04-06T04:26:13.446Z,98449.97
2023-04-06T04:28:45.000Z,98450.78
2023-04-06T04:31:12.306Z,98450.75
2023-04-06T04:33:41.756Z,98449.50
2023-04-06T04:36:14.729Z,98447.06
2023-04-06T04:38:43.934Z,98452.22
2023-04-06T04:41:11.949Z,98444.78
2023-04-06T04:43:42.325Z,98444.84
2023-04-06T04:46:11.709Z,98450.75
2023-04-06T04:48:42.389Z,98448.91
2023-04-06T04:51:09.549Z,98459.03
2023-04-06T04:53:57.573Z,98450.66
2023-04-06T04:56:30.223Z,98441.78
2023-04-06T04:59:06.400Z,98449.41
2023-04-06T05:01:51.300Z,98451.22
2023-04-06T05:04:24.717Z,98457.72
2023-04-06T05:07:07.783Z,98460.16
2023-04-06T05:09:37.085Z,98461.53
2023-04-06T05:12:04.540Z,98465.00
2023-04-06T05:14:36.980Z,98466.06
2023-04-06T05:17:07.768Z,98464.88
2023-04-06T05:19:37.846Z,98465.09
2023-04-06T05:22:07.158Z,98455.56
2023-04-06T05:24:37.578Z,98470.38
2023-04-06T05:27:07.350Z,98466.44
2023-04-06T05:29:35.172Z,98466.78
2023-04-06T05:32:03.547Z,98464.44
2023-04-06T05:34:31.456Z,98464.88
2023-04-06T05:37:03.673Z,98468.25
2023-04-06T05:39:32.563Z,98468.34
2023-04-06T05:42:05.202Z,98464.94
2023-04-06T05:44:45.251Z,98468.03
2023-04-06T05:47:17.074Z,98474.47
2023-04-06T05:49:48.138Z,98470.66
2023-04-06T05:52:24.853Z,98471.59
2023-04-06T05:54:52.895Z,98469.63
2023-04-06T05:57:20.946Z,98467.47
2023-04-06T05:59:49.004Z,98469.78
2023-04-06T06:02:17.352Z,98468.94
2023-04-06T06:04:48.376Z,98465.38
2023-04-06T06:07:16.816Z,98464.13
2023-04-06T06:09:49.153Z,98468.94
2023-04-06T06:12:25.634Z,98476.72
2023-04-06T06:14:52.625Z,98472.03
2023-04-06T06:19:49.039Z,98475.72
2023-04-06T06:22:17.227Z,98472.47
2023-04-06T06:24:47.094Z,98474.41
2023-04-06T06:27:16.604Z,98470.06
2023-04-06T06:29:44.187Z,98473.72
2023-04-06T06:32:11.707Z,98482.56
2023-04-06T06:34:39.776Z,98477.66
2023-04-06T06:37:11.081Z,98483.16
2023-04-06T06:39:41.404Z,98477.47
2023-04-06T06:42:14.515Z,98476.19
2023-04-06T06:45:03.942Z,98478.47
2023-04-06T06:47:31.254Z,98479.69
2023-04-06T06:50:04.862Z,98479.59
2023-04-06T06:52:31.937Z,98476.53
2023-04-06T06:55:01.791Z,98482.97
2023-04-06T06:57:31.725Z,98474.97
2023-04-06T07:00:01.964Z,98478.75
2023-04-06T07:02:30.669Z,98475.94
2023-04-06T07:04:58.063Z,98479.94
2023-04-06T07:07:25.403Z,98483.91
2023-04-06T07:09:52.534Z,98488.00
2023-04-06T07:12:19.693Z,98479.66
2023-04-06T07:14:47.503Z,98475.78
2023-04-06T07:17:14.739Z,98475.47
2023-04-06T07:19:43.427Z,98478.25
2023-04-06T07:22:11.628Z,98480.34
2023-04-06T07:24:38.667Z,98474.47
2023-04-06T07:27:07.131Z,98479.31
2023-04-06T07:29:34.276Z,98476.88
2023-04-06T07:32:04.481Z,98477.06
2023-04-06T07:34:32.606Z,98476.00
2023-04-06T07:37:03.993Z,98475.41
2023-04-06T07:39:36.569Z,98469.44
2023-04-06T07:42:07.983Z,98467.91
2023-04-06T07:44:37.270Z,98474.63
2023-04-06T07:47:04.495Z,98471.59
2023-04-06T07:49:33.987Z,98469.03
2023-04-06T07:52:04.353Z,98481.75
2023-04-06T07:54:33.507Z,98477.81
2023-04-06T07:57:01.435Z,98476.09
2023-04-06T07:59:28.850Z,98474.72
2023-04-06T08:01:56.785Z,98478.50
2023-04-06T08:04:27.071Z,98472.75
2023-04-06T08:06:54.275Z,98477.81
2023-04-06T08:09:24.538Z,98472.41
2023-04-06T08:11:52.195Z,98472.00
2023-04-06T08:14:23.432Z,98475.91
2023-04-06T08:16:50.473Z,98478.47
2023-04-06T08:19:18.379Z,98466.75
2023-04-06T08:21:47.026Z,98473.06
2023-04-06T08:24:15.023Z,98459.31
2023-04-06T08:26:43.848Z,98465.84
2023-04-06T08:29:18.601Z,98462.47
2023-04-06T08:31:53.711Z,98465.97
2023-04-06T08:34:22.545Z,98454.66
2023-04-06T08:36:50.094Z,98459.19
2023-04-06T08:39:17.500Z,98446.81
2023-04-06T08:41:45.285Z,98458.91
2023-04-06T08:44:15.700Z,98457.53
2023-04-06T08:46:43.859Z,98454.75
2023-04-06T08:49:11.469Z,98458.91
2023-04-06T08:51:40.360Z,98462.66
2023-04-06T08:54:07.771Z,98458.81
2023-04-06T08:56:44.542Z,98459.72
2023-04-06T08:59:13.619Z,98463.44
2023-04-06T09:01:47.080Z,98456.13
2023-04-06T09:04:17.761Z,98465.38
2023-04-06T09:06:48.759Z,98451.91
2023-04-06T09:09:17.119Z,98448.13
2023-04-06T09:11:57.622Z,98449.31
2023-04-06T09:14:39.231Z,98453.47
2023-04-06T09:17:07.096Z,98437.06
2023-04-06T09:19:37.450Z,98436.34
2023-04-06T09:22:08.548Z,98444.44
2023-04-06T09:25:07.485Z,98449.38
2023-04-06T09:27:37.117Z,98438.91
2023-04-06T09:30:11.405Z,98439.88
2023-04-06T09:32:48.166Z,98435.25
2023-04-06T09:35:17.260Z,98434.97
2023-04-06T09:37:45.318Z,98433.81
2023-04-06T09:40:14.572Z,98435.28
2023-04-06T09:42:43.399Z,98424.47
2023-04-06T09:45:11.159Z,98432.75
2023-04-06T09:47:38.415Z,98427.19
2023-04-06T09:50:06.212Z,98425.47
2023-04-06T09:52:38.588Z,98428.63
2023-04-06T09:55:06.834Z,98423.69
2023-04-06T09:57:57.620Z,98417.75
2023-04-06T10:00:28.567Z,98425.78
2023-04-06T10:03:16.233Z,98420.09
2023-04-06T10:06:01.491Z,98414.31
2023-04-06T10:08:32.517Z,98412.31
2023-04-06T10:11:02.044Z,98414.38
2023-04-06T10:13:29.121Z,98413.22
2023-04-06T10:15:57.477Z,98405.53
2023-04-06T10:18:25.205Z,98408.34
2023-04-06T10:21:13.281Z,98408.06
2023-04-06T10:23:48.511Z,98400.91
2023-04-06T10:26:18.937Z,98404.25
2023-04-06T10:28:48.487Z,98402.28
2023-04-06T10:31:17.046Z,98406.50
2023-04-06T10:33:56.306Z,98399.22
2023-04-06T10:36:28.843Z,98402.03
2023-04-06T10:39:03.689Z,98396.00
2023-04-06T10:41:37.415Z,98400.09
2023-04-06T10:44:09.662Z,98384.19
2023-04-06T10:46:40.371Z,98387.06
2023-04-06T10:49:14.001Z,98396.50
2023-04-06T10:51:41.368Z,98381.31
2023-04-06T10:54:09.094Z,98388.84
2023-04-06T10:56:40.126Z,98395.19
2023-04-06T10:59:09.081Z,98379.78
2023-04-06T11:01:37.184Z,98378.16
2023-04-06T11:04:05.067Z,98370.06
2023-04-06T11:06:33.850Z,98373.00
2023-04-06T11:09:01.508Z,98364.69
2023-04-06T11:11:29.523Z,98368.75
2023-04-06T11:13:59.036Z,98370.00
2023-04-06T11:16:32.376Z,98368.84
2023-04-06T11:19:04.595Z,98370.38
2023-04-06T11:21:38.339Z,98370.41
2023-04-06T11:24:09.462Z,98370.34
2023-04-06T11:26:55.489Z,98373.22
2023-04-06T11:29:31.646Z,98368.09
2023-04-06T11:32:07.395Z,98355.34
2023-04-06T11:34:40.097Z,98349.66
2023-04-06T11:37:12.241Z,98349.09
2023-04-06T11:39:42.242Z,98354.09
2023-04-06T11:42:09.764Z,98348.09
2023-04-06T11:44:44.968Z,98347.22
2023-04-06T11:47:14.247Z,98347.69
2023-04-06T11:49:46.350Z,98340.47
2023-04-06T11:52:24.952Z,98346.56
2023-04-06T11:54:53.618Z,98340.53
2023-04-06T11:57:22.087Z,98346.66
2023-04-06T11:59:49.784Z,98344.56
2023-04-06T12:02:20.476Z,98343.44
2023-04-06T12:04:48.461Z,98333.75
2023-04-06T12:07:15.872Z,98340.53
2023-04-06T12:09:44.517Z,98331.38
2023-04-06T12:12:11.737Z,98336.03
2023-04-06T12:14:39.079Z,98333.47
2023-04-06T12:17:10.246Z,98316.03
2023-04-06T12:19:38.163Z,98333.38
2023-04-06T12:22:05.172Z,98330.84
2023-04-06T12:24:32.339Z,98322.56
2023-04-06T12:27:08.622Z,98321.34
2023-04-06T12:29:38.596Z,98320.72
2023-04-06T12:32:07.148Z,98311.00
2023-04-06T12:34:34.024Z,98309.78
2023-04-06T12:37:01.843Z,98316.84
2023-04-06T12:39:29.368Z,98311.13
2023-04-06T12:41:58.643Z,98309.66
2023-04-06T12:44:32.246Z,98308.53
2023-04-06T12:46:59.596Z,98291.50
2023-04-06T12:49:28.457Z,98301.31
2023-04-06T12:51:57.897Z,98298.41
2023-04-06T12:54:28.039Z,98297.78
2023-04-06T12:56:57.987Z,98291.53
2023-04-06T12:59:26.308Z,98292.75
2023-04-06T13:01:54.014Z,98295.59
2023-04-06T13:04:25.045Z,98292.59
2023-04-06T13:06:56.876Z,98287.84
2023-04-06T13:09:26.928Z,98289.69
2023-04-06T13:11:54.797Z,98287.22
2023-04-06T13:14:27.282Z,98275.88
2023-04-06T13:16:54.440Z,98285.56
2023-04-06T13:19:22.874Z,98290.28
2023-04-06T13:21:49.739Z,98282.97
2023-04-06T13:24:17.874Z,98281.28
2023-04-06T13:26:45.907Z,98280.50
2023-04-06T13:29:14.290Z,98275.31
2023-04-06T13:31:44.464Z,98269.78
2023-04-06T13:34:12.218Z,98271.13
2023-04-06T13:36:44.061Z,98264.59
2023-04-06T13:39:11.143Z,98257.06
2023-04-06T13:41:39.462Z,98268.84
2023-04-06T13:44:09.860Z,98262.03
2023-04-06T13:46:38.403Z,98262.06
2023-04-06T13:49:05.851Z,98258.66
2023-04-06T13:51:33.252Z,98264.03
2023-04-06T13:54:05.079Z,98256.38
2023-04-06T13:56:34.199Z,98242.06
2023-04-06T13:59:06.347Z,98228.25
2023-04-06T14:01:33.876Z,98242.13
2023-04-06T14:04:01.208Z,98248.69
2023-04-06T14:06:31.545Z,98258.44
2023-04-06T14:09:01.183Z,98241.31
2023-04-06T14:11:34.212Z,98251.19
2023-04-06T14:14:03.071Z,98247.16
2023-04-06T14:16:33.075Z,98257.59
2023-04-06T14:19:02.004Z,98252.28
2023-04-06T14:21:33.841Z,98255.69
2023-04-06T14:24:04.402Z,98248.59
2023-04-06T14:26:34.374Z,98252.88
2023-04-06T14:29:02.492Z,98249.63
2023-04-06T14:31:30.570Z,98247.84
2023-04-06T14:33:58.074Z,98256.28
2023-04-06T14:36:28.335Z,98237.22
2023-04-06T14:38:55.416Z,98235.13
2023-04-06T14:41:26.928Z,98245.31
2023-04-06T14:43:55.962Z,98242.69
2023-04-06T14:46:24.302Z,98241.59
2023-04-06T14:48:51.917Z,98238.47
2023-04-06T14:51:19.597Z,98245.31
2023-04-06T14:53:47.340Z,98246.81
2023-04-06T14:56:20.085Z,98242.53
2023-04-06T14:58:47.722Z,98246.63
2023-04-06T15:01:14.905Z,98234.66
2023-04-06T15:03:44.178Z,98226.41
2023-04-06T15:06:21.551Z,98232.09
2023-04-06T15:08:51.147Z,98227.34
2023-04-06T15:11:19.114Z,98219.97
2023-04-06T15:13:49.094Z,98222.66
2023-04-06T15:16:19.286Z,98230.50
2023-04-06T15:18:46.323Z,98227.66
2023-04-06T15:21:13.513Z,98220.13
2023-04-06T15:23:40.653Z,98221.38
2023-04-06T15:26:07.519Z,98221.50
2023-04-06T15:28:34.518Z,98223.63
2023-04-06T15:31:07.068Z,98227.53
2023-04-06T15:33:34.217Z,98225.72
2023-04-06T15:36:07.713Z,98221.50
2023-04-06T15:38:35.369Z,98213.72
2023-04-06T15:41:04.514Z,98222.47
2023-04-06T15:43:32.005Z,98208.22
2023-04-06T15:45:59.111Z,98208.03
2023-04-06T15:48:32.373Z,98218.56
2023-04-06T15:50:59.938Z,98223.75
2023-04-06T15:53:28.010Z,98207.63
2023-04-06T15:56:02.844Z,98212.34
2023-04-06T15:58:29.966Z,98207.91
2023-04-06T16:01:00.180Z,98213.66
2023-04-06T16:03:30.903Z,98213.56
2023-04-06T16:06:08.113Z,98202.09
2023-04-06T16:08:44.823Z,98210.09
2023-04-06T16:11:13.682Z,98216.16
2023-04-06T16:13:45.042Z,98201.28
2023-04-06T16:16:15.141Z,98219.97
2023-04-06T16:18:43.117Z,98216.56
2023-04-06T16:21:20.603Z,98207.78
2023-04-06T16:23:49.514Z,98213.50
2023-04-06T16:26:18.531Z,98213.78
2023-04-06T16:28:45.811Z,98207.28
2023-04-06T16:31:24.479Z,98210.19
2023-04-06T16:33:59.327Z,98211.66
2023-04-06T16:36:28.638Z,98204.78
2023-04-06T16:39:00.174Z,98215.94
2023-04-06T16:41:28.068Z,98217.22
2023-04-06T16:43:57.444Z,98215.88
2023-04-06T16:46:35.666Z,98213.50
2023-04-06T16:49:05.156Z,98215.72
2023-04-06T16:51:32.975Z,98217.63
2023-04-06T16:54:01.104Z,98213.84
2023-04-06T16:56:28.049Z,98212.38
2023-04-06T16:58:55.108Z,98213.53
2023-04-06T17:01:26.930Z,98211.97
2023-04-06T17:03:55.458Z,98210.84
2023-04-06T17:06:27.349Z,98203.09
2023-04-06T17:08:54.612Z,98210.22
2023-04-06T17:11:28.061Z,98212.22
2023-04-06T17:13:56.696Z,98204.00
2023-04-06T17:16:24.787Z,98217.28
2023-04-06T17:18:52.622Z,98215.34
2023-04-06T17:21:21.044Z,98208.06
2023-04-06T17:23:48.872Z,98212.56
2023-04-06T17:26:16.859Z,98215.03
2023-04-06T17:28:45.718Z,98214.69
2023-04-06T17:31:14.378Z,98213.25
2023-04-06T17:33:42.787Z,98210.50
2023-04-06T17:36:11.169Z,98215.47
2023-04-06T17:38:43.668Z,98219.66
2023-04-06T17:41:13.163Z,98224.19
2023-04-06T17:43:40.789Z,98227.66
2023-04-06T17:46:08.244Z,98227.19
2023-04-06T17:48:35.810Z,98234.97
2023-04-06T17:51:03.415Z,98223.88
2023-04-06T17:53:32.812Z,98229.75
2023-04-06T17:56:04.178Z,98223.25
2023-04-06T17:58:32.530Z,98235.19
2023-04-06T18:00:59.862Z,98231.84
2023-04-06T18:03:28.378Z,98240.63
2023-04-06T18:05:57.740Z,98243.09
2023-04-06T18:08:25.507Z,98247.91
2023-04-06T18:10:52.616Z,98248.28
2023-04-06T18:13:20.329Z,98238.41
2023-04-06T18:15:49.248Z,98244.06
2023-04-06T18:18:17.138Z,98243.72
2023-04-06T18:20:44.053Z,98233.81
2023-04-06T18:23:11.057Z,98242.81
2023-04-06T18:25:41.484Z,98238.59
2023-04-06T18:28:09.493Z,98238.22
2023-04-06T18:30:37.172Z,98242.66
2023-04-06T18:33:04.826Z,98235.81
2023-04-06T18:35:31.992Z,98247.53
2023-04-06T18:37:59.074Z,98245.44
2023-04-06T18:40:37.408Z,98238.44
2023-04-06T18:43:06.734Z,98238.44
2023-04-06T18:45:35.333Z,98243.34
2023-04-06T18:48:03.934Z,98254.34
2023-04-06T18:50:31.133Z,98248.28
2023-04-06T18:52:58.427Z,98251.91
2023-04-06T18:55:26.354Z,98254.97
2023-04-06T18:57:56.093Z,98255.50
2023-04-06T19:00:23.871Z,98257.44
2023-04-06T19:02:51.247Z,98260.41
2023-04-06T19:05:19.249Z,98261.13
2023-04-06T19:07:52.946Z,98257.31
2023-04-06T19:10:20.329Z,98259.25
2023-04-06T19:12:48.014Z,98260.63
2023-04-06T19:15:15.934Z,98253.25
2023-04-06T19:17:43.748Z,98258.53
2023-04-06T19:20:11.884Z,98264.50
2023-04-06T19:22:40.618Z,98259.94
2023-04-06T19:25:08.496Z,98254.53
2023-04-06T19:27:35.693Z,98263.47
2023-04-06T19:30:05.740Z,98261.34
2023-04-06T19:32:33.257Z,98267.97
2023-04-06T19:35:01.561Z,98261.38
2023-04-06T19:37:28.993Z,98258.38
2023-04-06T19:39:56.225Z,98254.63
2023-04-06T19:42:24.297Z,98252.63
2023-04-06T19:44:52.153Z,98254.13
2023-04-06T19:47:19.229Z,98253.41
2023-04-06T19:49:46.288Z,98251.63
2023-04-06T19:52:14.255Z,98257.97
2023-04-06T19:54:41.585Z,98254.22
2023-04-06T19:57:08.607Z,98257.97
2023-04-06T19:59:35.950Z,98256.91
2023-04-06T20:02:03.089Z,98259.84
2023-04-06T20:04:30.933Z,98255.53
2023-04-06T20:06:58.627Z,98252.63
2023-04-06T20:09:25.798Z,98261.34
2023-04-06T20:11:54.612Z,98265.72
2023-04-06T20:14:22.930Z,98259.69
2023-04-06T20:16:51.441Z,98260.00
2023-04-06T20:19:19.038Z,98265.94
2023-04-06T20:21:48.225Z,98263.25
2023-04-06T20:24:16.047Z,98270.03
2023-04-06T20:26:43.103Z,98261.97
2023-04-06T20:29:10.025Z,98259.66
2023-04-06T20:31:37.134Z,98260.69
2023-04-06T20:34:04.565Z,98266.13
2023-04-06T20:36:34.680Z,98259.50
2023-04-06T20:39:02.223Z,98269.09
2023-04-06T20:41:58.843Z,98264.44
2023-04-06T20:44:28.767Z,98265.63
2023-04-06T20:47:03.230Z,98270.13
2023-04-06T20:49:34.555Z,98261.81
2023-04-06T20:52:08.673Z,98263.06
2023-04-06T20:54:44.790Z,98270.31
2023-04-06T20:57:13.790Z,98270.34
2023-04-06T20:59:40.517Z,98272.06
2023-04-06T21:02:07.576Z,98264.84
2023-04-06T21:04:35.667Z,98264.06
2023-04-06T21:07:06.831Z,98259.59
2023-04-06T21:09:39.188Z,98260.19
2023-04-06T21:12:07.675Z,98259.94
2023-04-06T21:14:37.889Z,98267.19
2023-04-06T21:17:04.884Z,98267.53
2023-04-06T21:19:32.066Z,98270.59
2023-04-06T21:21:59.329Z,98267.69
2023-04-06T21:24:26.275Z,98266.00
2023-04-06T21:26:53.415Z,98269.31
2023-04-06T21:29:20.912Z,98269.88
2023-04-06T21:31:47.945Z,98270.34
2023-04-06T21:34:15.030Z,98262.28
2023-04-06T21:36:42.993Z,98260.91
2023-04-06T21:39:10.354Z,98263.22
2023-04-06T21:41:38.050Z,98256.78
2023-04-06T21:44:05.306Z,98264.66
2023-04-06T21:46:33.081Z,98257.53
2023-04-06T21:49:00.387Z,98264.81
2023-04-06T21:51:27.447Z,98256.69
2023-04-06T21:53:55.590Z,98252.97
2023-04-06T21:56:24.841Z,98253.19
2023-04-06T21:58:52.659Z,98257.81
2023-04-06T22:01:20.936Z,98253.38
2023-04-06T22:03:48.460Z,98246.88
2023-04-06T22:06:16.239Z,98257.97
2023-04-06T22:08:47.653Z,98251.97
2023-04-06T22:11:14.899Z,98244.16
2023-04-06T22:13:41.902Z,98246.50
2023-04-06T22:16:09.158Z,98243.91
2023-04-06T22:18:38.813Z,98248.34
2023-04-06T22:21:06.229Z,98251.75
2023-04-06T22:23:33.771Z,98249.59
2023-04-06T22:26:01.720Z,98247.78
2023-04-06T22:28:28.646Z,98246.84
2023-04-06T22:30:55.500Z,98245.38
2023-04-06T22:33:22.662Z,98242.66
2023-04-06T22:35:49.724Z,98249.50
2023-04-06T22:38:16.651Z,98239.84
2023-04-06T22:40:43.407Z,98240.78
2023-04-06T22:43:10.560Z,98238.72
2023-04-06T22:45:37.788Z,98244.97
2023-04-06T22:48:05.166Z,98235.41
2023-04-06T22:50:32.117Z,98239.78
2023-04-06T22:52:59.459Z,98240.13
2023-04-06T22:55:28.756Z,98234.56
2023-04-06T22:57:55.636Z,98240.66
2023-04-06T23:00:22.481Z,98240.81
2023-04-06T23:02:49.961Z,98236.34
2023-04-06T23:05:16.927Z,98232.38
2023-04-06T23:07:45.440Z,98231.19
2023-04-06T23:10:13.058Z,98229.41
2023-04-06T23:12:39.777Z,98230.06
2023-04-06T23:15:07.216Z,98220.13
2023-04-06T23:17:34.324Z,98229.91
2023-04-06T23:20:01.286Z,98227.69
2023-04-06T23:22:27.999Z,98227.50
2023-04-06T23:24:55.645Z,98225.91
2023-04-06T23:27:22.427Z,98230.38
2023-04-06T23:29:49.512Z,98222.84
2023-04-06T23:32:16.679Z,98224.28
2023-04-06T23:34:43.669Z,98216.97
2023-04-06T23:37:11.246Z,98227.31
2023-04-06T23:39:40.173Z,98227.66
2023-04-06T23:42:07.345Z,98215.56
2023-04-06T23:44:34.230Z,98218.72
2023-04-06T23:47:01.617Z,98213.34
2023-04-06T23:49:28.479Z,98211.34
2023-04-06T23:51:55.699Z,98210.94
2023-04-06T23:54:22.612Z,98204.41
2023-04-06T23:56:52.059Z,98199.69
2023-04-06T23:59:22.067Z,98202.66
